Cairns, Queensland

6:41 AM AEST on October 02, 2014 (GMT +1000)
Cairns International | Change Station
CLOSE
Current Station
Airport
Location: Cairns,
Elevation: 10 ft
Nearby Weather Stations

Elev 10 ft 16.87 °S, 145.75 °E | Updated -1124 second ago

Mostly Cloudy
Mostly Cloudy
70 °F
Feels Like 70 °F
N
10
Wind Variable Wind from SE

Today
High -- | Low -- °F
--% Chance of Precip.
Yesterday
High -- | Low -- °F
Precip. -- in
5:58 AM 6:14 PM
Waxing Crescent, 51% visible
Pressure 30.04 in
Visibility 6.2 miles
Clouds Few 2500 ft
Mostly Cloudy 5300 ft
Dew Point 57 °F
Humidity 64%
Rainfall 0.00 in
Snow Depth Not available.
UV 0 out of 12
Pollen Not available.
Air Quality Not available.
Flu Activity Not available.
METAR YBCS 302100Z 14009KT 9999 FEW025 BKN053 21/14 Q1017 NOSIG

More Conditions Fewer Conditions

Pressure 30.04 in
Visibility 6.2 miles
Clouds Few 2500 ft
Mostly Cloudy 5300 ft
Dew Point 57 °F
Humidity 64%
Rainfall 0.00 in
Snow Depth Not available.
UV 0 out of 12
Pollen Not available.
Air Quality Not available.
Flu Activity Not available.
METAR YBCS 302100Z 14009KT 9999 FEW025 BKN053 21/14 Q1017 NOSIG

More Conditions Fewer Conditions

10-Day Weather Forecast

Almanac

Astronomy

Oct. 02, 2014 Rise Set
Actual Time 5:58 AM AEST 6:14 PM AEST
Civil Twilight 5:37 AM AEST 6:35 PM AEST
Nautical Twilight 5:12 AM AEST 7:01 PM AEST
Astronomical Twilight 4:46 AM AEST 7:26 PM AEST
Moon 12:04 PM AEST (10/2) 12:22 AM AEST (10/2)
Length of Visible Light 12h 58m
Length of Day
12h 15m
Tomorrow will be 0m 57s longer.
Waxing Crescent, 51% of the Moon is Illuminated
Oct 1
Waxing Crescent
Oct 8
Full
Oct 15
Last Quarter
Oct 23
New
Oct 30
First Quarter

Yesterday's Extremes

Country Highs Country Lows

Community

WunderPhotos

Upload Photos

1,758,043 photos uploaded!

WunderBlogs® & News

By Dr. Jeff Masters
Director of Meteorology, Weather Underground
By Kari Strenfel
Meteorologist, Weather Underground
By Christopher C. Burt
Weather Historian, Weather Underground
October 1, 2014
October 1, 2014
October 1, 2014

Nearby

Snow Depth

Not available.

Earthquake Activity

City Distance Mag. Time & Date
No recent earthquake activity has been reported nearby.
Minimum magnitude displayed is 2.5.

Coastal Water Temperatures

Place Temperature
No Stations Reporting

Nearby Weather Stations